Time;durP1;ratioP1;P1;durP2;ratioP2;P2;SDS_P1;SDS_P2;PMS_P1;PMS_P2;Temp;Humidity;BMP_temperature;BMP_pressure;BME280_temperature;BME280_humidity;BME280_pressure;Samples;Min_cycle;Max_cycle;Signal;HPM_P1;HPM_P2
2022/06/25 00:00:23;;;;;;;;;;;;;;;-146.27;100.00;64033.13;5092617;28;19970;-48
2022/06/25 00:02:49;;;;;;;;;;;;;;;-146.27;100.00;64033.13;5091471;28;20414;-48
2022/06/25 00:05:29;;;;;;;;;;;;;;;-146.27;100.00;64033.13;5091724;28;19951;-49
2022/06/25 00:07:55;;;;;;;;;;;;;;;-146.27;100.00;64033.13;5091569;28;19974;-49
2022/06/25 00:10:21;;;;;;;;;;;;;;;-146.27;100.00;64033.13;5091579;28;19912;-50
2022/06/25 00:12:46;;;;;;;;;;;;;;;-146.27;100.00;64033.13;5091405;28;19918;-48
2022/06/25 00:15:12;;;;;;;;;;;;;;;-146.27;100.00;64033.13;5090723;28;19969;-38
2022/06/25 00:17:37;;;;;;;;;;;;;;;-146.27;100.00;64033.13;5091270;28;20381;-39
2022/06/25 00:20:03;;;;;;;;;;;;;;;-146.27;100.00;64033.13;5091305;28;19926;-39
2022/06/25 00:22:29;;;;;;;;;;;;;;;-146.27;100.00;64033.13;5091266;28;19977;-37
2022/06/25 00:24:54;;;;;;;;;;;;;;;-146.27;100.00;64033.13;5091142;28;19920;-37
2022/06/25 00:27:20;;;;;;;;;;;;;;;-146.27;100.00;64033.13;5091334;28;19927;-37
2022/06/25 00:29:45;;;;;;;;;;;;;;;-146.27;100.00;64033.13;5091254;28;19978;-47
2022/06/25 00:32:11;;;;;;;;;;;;;;;-146.27;100.00;64033.13;5090926;28;19966;-50
2022/06/25 00:34:37;;;;;;;;;;;;;;;-146.27;100.00;64033.13;5090646;28;19958;-47
2022/06/25 00:37:02;;;;;;;;;;;;;;;-146.27;100.00;64033.13;5090676;28;19977;-49
2022/06/25 00:39:27;;;;;;;;;;;;;;;-146.27;100.00;64033.13;5090907;28;19912;-47
2022/06/25 00:41:53;;;;;;;;;;;;;;;-146.27;100.00;64033.13;5090862;28;19916;-48
2022/06/25 00:44:18;;;;;;;;;;;;;;;-146.27;100.00;64033.13;5090942;28;20303;-47
2022/06/25 00:46:49;;;;;;;;;;;;;;;-146.27;100.00;64033.13;5090507;28;19939;-47
2022/06/25 00:49:15;;;;;;;;;;;;;;;-146.27;100.00;64033.13;5090312;28;19974;-46
2022/06/25 00:51:40;;;;;;;;;;;;;;;-146.27;100.00;64033.13;5090900;28;20016;-47
2022/06/25 00:54:08;;;;;;;;;;;;;;;-146.27;100.00;64033.13;5091350;28;19919;-47
2022/06/25 00:56:36;;;;;;;;;;;;;;;-146.27;100.00;64033.13;5090946;28;20014;-48
2022/06/25 00:59:05;;;;;;;;;;;;;;;-146.27;100.00;64033.13;5091614;28;20019;-51
2022/06/25 01:01:34;;;;;;;;;;;;;;;-146.27;100.00;64033.13;5091126;28;19955;-51
2022/06/25 01:04:00;;;;;;;;;;;;;;;-146.27;100.00;64033.13;5091475;28;19912;-47
2022/06/25 01:06:27;;;;;;;;;;;;;;;-146.27;100.00;64033.13;5091072;28;19912;-48
2022/06/25 01:08:52;;;;;;;;;;;;;;;-146.27;100.00;64033.13;5091264;28;19952;-50
2022/06/25 01:11:17;;;;;;;;;;;;;;;-146.27;100.00;64033.13;5091090;28;19988;-48
2022/06/25 01:13:43;;;;;;;;;;;;;;;-146.27;100.00;64033.13;5091714;28;20015;-48
2022/06/25 01:16:08;;;;;;;;;;;;;;;-146.27;100.00;64033.13;5091289;28;20340;-48
2022/06/25 01:18:33;;;;;;;;;;;;;;;-146.27;100.00;64033.13;5090784;28;19938;-47
2022/06/25 01:21:01;;;;;;;;;;;;;;;-146.27;100.00;64033.13;5103912;28;19966;-47
2022/06/25 01:23:27;;;;;;;;;;;;;;;-146.27;100.00;64033.13;5111483;28;19912;-51
2022/06/25 01:25:52;;;;;;;;;;;;;;;-146.27;100.00;64033.13;5111349;28;19922;-47
2022/06/25 01:28:17;;;;;;;;;;;;;;;-146.27;100.00;64033.13;5110969;28;19920;-47
2022/06/25 01:30:43;;;;;;;;;;;;;;;-146.27;100.00;64033.13;5111301;28;19973;-48
2022/06/25 01:33:08;;;;;;;;;;;;;;;-146.27;100.00;64033.13;5111422;28;19919;-47
2022/06/25 01:35:34;;;;;;;;;;;;;;;-146.27;100.00;64033.13;5111147;28;19924;-51
2022/06/25 01:37:59;;;;;;;;;;;;;;;-146.27;100.00;64033.13;5111391;28;20092;-48
2022/06/25 01:40:24;;;;;;;;;;;;;;;-146.27;100.00;64033.13;5110874;28;19965;-49
2022/06/25 01:42:59;;;;;;;;;;;;;;;-146.27;100.00;64033.13;5111096;28;19919;-48
2022/06/25 01:45:24;;;;;;;;;;;;;;;-146.27;100.00;64033.13;5100576;28;19964;-49
2022/06/25 01:47:50;;;;;;;;;;;;;;;-146.27;100.00;64033.13;5090511;28;19991;-50
2022/06/25 01:50:16;;;;;;;;;;;;;;;-146.27;100.00;64033.13;5089893;28;19912;-47
2022/06/25 01:52:43;;;;;;;;;;;;;;;-146.27;100.00;64033.13;5090733;28;20439;-47
2022/06/25 01:55:09;;;;;;;;;;;;;;;-146.27;100.00;64033.13;5090925;28;19912;-48
2022/06/25 01:57:34;;;;;;;;;;;;;;;-146.27;100.00;64033.13;5090796;28;19912;-48
2022/06/25 01:59:59;;;;;;;;;;;;;;;-146.27;100.00;64033.13;5090609;28;19912;-47
2022/06/25 02:02:24;;;;;;;;;;;;;;;-146.27;100.00;64033.13;5090620;28;19960;-47
2022/06/25 02:04:50;;;;;;;;;;;;;;;-146.27;100.00;64033.13;5090953;28;20345;-47
2022/06/25 02:07:15;;;;;;;;;;;;;;;-146.27;100.00;64033.13;5090981;28;20287;-48
2022/06/25 02:09:40;;;;;;;;;;;;;;;-146.27;100.00;64033.13;5090639;28;19922;-49
2022/06/25 02:12:07;;;;;;;;;;;;;;;-146.27;100.00;64033.13;5090016;28;19912;-47
2022/06/25 02:14:32;;;;;;;;;;;;;;;-146.27;100.00;64033.13;5091134;28;19912;-51
2022/06/25 02:16:57;;;;;;;;;;;;;;;-146.27;100.00;64033.13;5090710;28;20357;-48
2022/06/25 02:19:23;;;;;;;;;;;;;;;-146.27;100.00;64033.13;5090089;28;20026;-48
2022/06/25 02:21:48;;;;;;;;;;;;;;;-146.27;100.00;64033.13;5110179;28;19912;-48
2022/06/25 02:24:14;;;;;;;;;;;;;;;-146.27;100.00;64033.13;5110498;28;19923;-49
2022/06/25 02:26:39;;;;;;;;;;;;;;;-146.27;100.00;64033.13;5110698;28;19919;-47
2022/06/25 02:29:04;;;;;;;;;;;;;;;-146.27;100.00;64033.13;5110699;28;19999;-51
2022/06/25 02:31:29;;;;;;;;;;;;;;;-146.27;100.00;64033.13;5110395;28;19929;-50
2022/06/25 02:33:55;;;;;;;;;;;;;;;-146.27;100.00;64033.13;5110813;28;19922;-47
2022/06/25 02:36:20;;;;;;;;;;;;;;;-146.27;100.00;64033.13;5110600;28;19923;-48
2022/06/25 02:38:45;;;;;;;;;;;;;;;-146.27;100.00;64033.13;5112097;28;19912;-50
2022/06/25 02:41:11;;;;;;;;;;;;;;;-146.27;100.00;64033.13;5114100;28;19919;-50
2022/06/25 02:43:36;;;;;;;;;;;;;;;-146.27;100.00;64033.13;5114208;28;19912;-50
2022/06/25 02:46:02;;;;;;;;;;;;;;;-146.27;100.00;64033.13;5097908;28;20024;-50
2022/06/25 02:48:27;;;;;;;;;;;;;;;-146.27;100.00;64033.13;5093458;28;20012;-49
2022/06/25 02:50:52;;;;;;;;;;;;;;;-146.27;100.00;64033.13;5092823;28;20367;-48
2022/06/25 02:53:17;;;;;;;;;;;;;;;-146.27;100.00;64033.13;5093738;28;19923;-47
2022/06/25 03:01:10;;;;;;;;;;;;;;;-146.27;100.00;64033.13;5094296;28;20007;-38
2022/06/25 03:03:36;;;;;;;;;;;;;;;-146.27;100.00;64033.13;5093699;28;19999;-38
2022/06/25 03:06:01;;;;;;;;;;;;;;;-146.27;100.00;64033.13;5093500;28;19958;-39
2022/06/25 03:08:27;;;;;;;;;;;;;;;-146.27;100.00;64033.13;5093076;28;19967;-38
2022/06/25 03:10:52;;;;;;;;;;;;;;;-146.27;100.00;64033.13;5093280;28;19962;-38
2022/06/25 03:13:17;;;;;;;;;;;;;;;-146.27;100.00;64033.13;5093526;28;19947;-38
2022/06/25 03:15:43;;;;;;;;;;;;;;;-146.27;100.00;64033.13;5093139;28;19969;-38
2022/06/25 03:18:08;;;;;;;;;;;;;;;-146.27;100.00;64033.13;5093103;28;19969;-38
2022/06/25 03:20:33;;;;;;;;;;;;;;;-146.27;100.00;64033.13;5092907;28;19912;-39
2022/06/25 03:22:58;;;;;;;;;;;;;;;-146.27;100.00;64033.13;5092969;28;19939;-37
2022/06/25 03:25:24;;;;;;;;;;;;;;;-146.27;100.00;64033.13;5093071;28;19934;-38
2022/06/25 03:27:49;;;;;;;;;;;;;;;-146.27;100.00;64033.13;5093557;28;19965;-37
2022/06/25 03:30:14;;;;;;;;;;;;;;;-146.27;100.00;64033.13;5093084;28;19972;-37
2022/06/25 03:32:40;;;;;;;;;;;;;;;-146.27;100.00;64033.13;5092590;28;20325;-37
2022/06/25 03:35:05;;;;;;;;;;;;;;;-146.27;100.00;64033.13;5092644;28;19923;-37
2022/06/25 03:37:31;;;;;;;;;;;;;;;-146.27;100.00;64033.13;5072483;28;20011;-37
2022/06/25 03:39:56;;;;;;;;;;;;;;;-146.27;100.00;64033.13;5072634;28;19913;-37
2022/06/25 03:42:21;;;;;;;;;;;;;;;-146.27;100.00;64033.13;5072379;28;19919;-38
2022/06/25 03:44:46;;;;;;;;;;;;;;;-146.27;100.00;64033.13;5072592;28;19919;-37
2022/06/25 03:47:12;;;;;;;;;;;;;;;-146.27;100.00;64033.13;5072310;28;20300;-38
2022/06/25 03:49:37;;;;;;;;;;;;;;;-146.27;100.00;64033.13;5071686;28;19916;-37
2022/06/25 03:52:02;;;;;;;;;;;;;;;-146.27;100.00;64033.13;5072367;28;20114;-37
2022/06/25 03:54:28;;;;;;;;;;;;;;;-146.27;100.00;64033.13;5072085;28;19960;-37
2022/06/25 03:56:53;;;;;;;;;;;;;;;-146.27;100.00;64033.13;5071656;28;19917;-37
2022/06/25 03:59:18;;;;;;;;;;;;;;;-146.27;100.00;64033.13;5071448;28;19916;-38
2022/06/25 04:01:43;;;;;;;;;;;;;;;-146.27;100.00;64033.13;5071664;28;20308;-38
2022/06/25 04:04:09;;;;;;;;;;;;;;;-146.27;100.00;64033.13;5070296;28;20281;-38
2022/06/25 04:06:34;;;;;;;;;;;;;;;-146.27;100.00;64033.13;5070420;28;19912;-38
2022/06/25 04:08:59;;;;;;;;;;;;;;;-146.27;100.00;64033.13;5071214;28;19956;-48
2022/06/25 04:11:25;;;;;;;;;;;;;;;-146.27;100.00;64033.13;5072136;28;20450;-37
2022/06/25 04:13:50;;;;;;;;;;;;;;;-146.27;100.00;64033.13;5070877;28;19969;-37
2022/06/25 04:16:15;;;;;;;;;;;;;;;-146.27;100.00;64033.13;5071698;28;19920;-37
2022/06/25 04:18:41;;;;;;;;;;;;;;;-146.27;100.00;64033.13;5071054;28;19912;-38
2022/06/25 04:21:06;;;;;;;;;;;;;;;-146.27;100.00;64033.13;5071247;28;19917;-38
2022/06/25 04:23:31;;;;;;;;;;;;;;;-146.27;100.00;64033.13;5070518;28;20311;-38
2022/06/25 04:25:57;;;;;;;;;;;;;;;-146.27;100.00;64033.13;5069845;28;19913;-37
2022/06/25 04:31:06;;;;;;;;;;;;;;;-146.27;100.00;64033.13;5070512;28;20327;-37
2022/06/25 04:33:32;;;;;;;;;;;;;;;-146.27;100.00;64033.13;5071013;28;19955;-37
2022/06/25 04:35:57;;;;;;;;;;;;;;;-146.27;100.00;64033.13;5077553;28;19935;-37
2022/06/25 04:38:22;;;;;;;;;;;;;;;-146.27;100.00;64033.13;5090847;28;19912;-37
2022/06/25 04:40:48;;;;;;;;;;;;;;;-146.27;100.00;64033.13;5090853;28;19912;-38
2022/06/25 04:43:13;;;;;;;;;;;;;;;-146.27;100.00;64033.13;5091189;28;19995;-38
2022/06/25 04:45:38;;;;;;;;;;;;;;;-146.27;100.00;64033.13;5090965;28;20355;-37
2022/06/25 04:48:04;;;;;;;;;;;;;;;-146.27;100.00;64033.13;5090010;28;20027;-37
2022/06/25 04:50:30;;;;;;;;;;;;;;;-146.27;100.00;64033.13;5090596;28;19970;-38
2022/06/25 04:52:55;;;;;;;;;;;;;;;-146.27;100.00;64033.13;5090577;28;20394;-38
2022/06/25 04:55:20;;;;;;;;;;;;;;;-146.27;100.00;64033.13;5090826;28;19912;-37
2022/06/25 04:57:46;;;;;;;;;;;;;;;-146.27;100.00;64033.13;5090727;28;19913;-37
2022/06/25 05:00:11;;;;;;;;;;;;;;;-146.27;100.00;64033.13;5090770;28;19939;-37
2022/06/25 05:02:37;;;;;;;;;;;;;;;-146.27;100.00;64033.13;5090228;28;19912;-37
2022/06/25 05:05:02;;;;;;;;;;;;;;;-146.27;100.00;64033.13;5090568;28;20358;-37
2022/06/25 05:07:28;;;;;;;;;;;;;;;-146.27;100.00;64033.13;5090664;28;19916;-37
2022/06/25 05:09:53;;;;;;;;;;;;;;;-146.27;100.00;64033.13;5090557;28;20343;-38
2022/06/25 05:15:02;;;;;;;;;;;;;;;-146.27;100.00;64033.13;5090867;28;19923;-37
2022/06/25 05:17:28;;;;;;;;;;;;;;;-146.27;100.00;64033.13;5090467;28;19912;-37
2022/06/25 05:19:53;;;;;;;;;;;;;;;-146.27;100.00;64033.13;5093456;28;19916;-39
2022/06/25 05:22:19;;;;;;;;;;;;;;;-146.27;100.00;64033.13;5110329;28;19935;-37
2022/06/25 05:24:44;;;;;;;;;;;;;;;-146.27;100.00;64033.13;5110138;28;19996;-37
2022/06/25 05:27:09;;;;;;;;;;;;;;;-146.27;100.00;64033.13;5110666;28;20282;-37
2022/06/25 05:29:34;;;;;;;;;;;;;;;-146.27;100.00;64033.13;5110479;28;20364;-37
2022/06/25 05:32:00;;;;;;;;;;;;;;;-146.27;100.00;64033.13;5110583;28;19911;-37
2022/06/25 05:34:25;;;;;;;;;;;;;;;-146.27;100.00;64033.13;5110194;28;20331;-37
2022/06/25 05:36:50;;;;;;;;;;;;;;;-146.27;100.00;64033.13;5110616;28;19926;-37
2022/06/25 05:39:16;;;;;;;;;;;;;;;-146.27;100.00;64033.13;5110600;28;20002;-37
2022/06/25 05:41:41;;;;;;;;;;;;;;;-146.27;100.00;64033.13;5110914;28;19911;-37
2022/06/25 05:44:06;;;;;;;;;;;;;;;-146.27;100.00;64033.13;5110232;28;19911;-38
2022/06/25 05:46:32;;;;;;;;;;;;;;;-146.27;100.00;64033.13;5087020;28;19920;-37
2022/06/25 05:48:57;;;;;;;;;;;;;;;-146.27;100.00;64033.13;5085015;28;19926;-37
2022/06/25 05:51:22;;;;;;;;;;;;;;;-146.27;100.00;64033.13;5090052;28;19923;-37
2022/06/25 05:53:47;;;;;;;;;;;;;;;-146.27;100.00;64033.13;5090089;28;19991;-37
2022/06/25 05:56:13;;;;;;;;;;;;;;;-146.27;100.00;64033.13;5089532;28;19916;-37
2022/06/25 05:58:38;;;;;;;;;;;;;;;-146.27;100.00;64033.13;5089830;28;19912;-37
2022/06/25 06:01:03;;;;;;;;;;;;;;;-146.27;100.00;64033.13;5089933;28;19923;-37
2022/06/25 06:03:28;;;;;;;;;;;;;;;-146.27;100.00;64033.13;5089804;28;19912;-37
2022/06/25 06:05:54;;;;;;;;;;;;;;;-146.27;100.00;64033.13;5089545;28;20390;-37
2022/06/25 06:08:20;;;;;;;;;;;;;;;-146.27;100.00;64033.13;5088467;28;19916;-37
2022/06/25 06:10:46;;;;;;;;;;;;;;;-146.27;100.00;64033.13;5088935;28;20353;-38
2022/06/25 06:13:11;;;;;;;;;;;;;;;-146.27;100.00;64033.13;5088756;28;19912;-37
2022/06/25 06:15:36;;;;;;;;;;;;;;;-146.27;100.00;64033.13;5093020;28;19973;-37
2022/06/25 06:18:02;;;;;;;;;;;;;;;-146.27;100.00;64033.13;5092431;28;19912;-37
2022/06/25 06:20:27;;;;;;;;;;;;;;;-146.27;100.00;64033.13;5091679;28;19981;-37
2022/06/25 06:22:52;;;;;;;;;;;;;;;-146.27;100.00;64033.13;5092553;28;19912;-37
2022/06/25 06:25:18;;;;;;;;;;;;;;;-146.27;100.00;64033.13;5093612;28;20369;-37
2022/06/25 06:27:43;;;;;;;;;;;;;;;-146.27;100.00;64033.13;5092958;28;20038;-37
2022/06/25 06:30:10;;;;;;;;;;;;;;;-146.27;100.00;64033.13;5094015;28;19970;-44
2022/06/25 06:32:35;;;;;;;;;;;;;;;-146.27;100.00;64033.13;5094017;28;20205;-38
2022/06/25 06:35:01;;;;;;;;;;;;;;;-146.27;100.00;64033.13;5093608;28;20405;-37
2022/06/25 06:37:26;;;;;;;;;;;;;;;-146.27;100.00;64033.13;5093177;28;20023;-37
2022/06/25 06:39:52;;;;;;;;;;;;;;;-146.27;100.00;64033.13;5093521;28;20032;-37
2022/06/25 06:42:19;;;;;;;;;;;;;;;-146.27;100.00;64033.13;5093087;28;20304;-37
2022/06/25 06:44:45;;;;;;;;;;;;;;;-146.27;100.00;64033.13;5093817;28;19912;-38
2022/06/25 06:47:10;;;;;;;;;;;;;;;-146.27;100.00;64033.13;5093915;28;19918;-38
2022/06/25 06:49:36;;;;;;;;;;;;;;;-146.27;100.00;64033.13;5093016;28;19916;-38
2022/06/25 06:52:01;;;;;;;;;;;;;;;-146.27;100.00;64033.13;5093375;28;19999;-37
2022/06/25 06:54:27;;;;;;;;;;;;;;;-146.27;100.00;64033.13;5093818;28;19955;-37
2022/06/25 06:56:53;;;;;;;;;;;;;;;-146.27;100.00;64033.13;5093477;28;19963;-37
2022/06/25 06:59:18;;;;;;;;;;;;;;;-146.27;100.00;64033.13;5093064;28;19968;-37
2022/06/25 07:01:43;;;;;;;;;;;;;;;-146.27;100.00;64033.13;5093176;28;20165;-37
2022/06/25 07:04:08;;;;;;;;;;;;;;;-146.27;100.00;64033.13;5093578;28;19912;-37
2022/06/25 07:06:34;;;;;;;;;;;;;;;-146.27;100.00;64033.13;5093190;28;19916;-37
2022/06/25 07:08:59;;;;;;;;;;;;;;;-146.27;100.00;64033.13;5093095;28;19919;-37
2022/06/25 07:11:30;;;;;;;;;;;;;;;-146.27;100.00;64033.13;5092860;28;20007;-37
2022/06/25 07:13:56;;;;;;;;;;;;;;;-146.27;100.00;64033.13;5093112;28;20390;-38
2022/06/25 07:16:21;;;;;;;;;;;;;;;-146.27;100.00;64033.13;5093158;28;20299;-37
2022/06/25 07:18:47;;;;;;;;;;;;;;;-146.27;100.00;64033.13;5093174;28;19918;-39
2022/06/25 07:21:12;;;;;;;;;;;;;;;-146.27;100.00;64033.13;5108119;28;19918;-38
2022/06/25 07:23:38;;;;;;;;;;;;;;;-146.27;100.00;64033.13;5113249;28;19994;-38
2022/06/25 07:26:03;;;;;;;;;;;;;;;-146.27;100.00;64033.13;5113092;28;19954;-37
2022/06/25 07:28:28;;;;;;;;;;;;;;;-146.27;100.00;64033.13;5113680;28;20003;-37
2022/06/25 07:30:53;;;;;;;;;;;;;;;-146.27;100.00;64033.13;5113391;28;19923;-36
2022/06/25 07:33:19;;;;;;;;;;;;;;;-146.27;100.00;64033.13;5113183;28;20252;-38
2022/06/25 07:35:44;;;;;;;;;;;;;;;-146.27;100.00;64033.13;5113090;28;19967;-38
2022/06/25 07:38:10;;;;;;;;;;;;;;;-146.27;100.00;64033.13;5113061;28;19919;-37
2022/06/25 07:40:35;;;;;;;;;;;;;;;-146.27;100.00;64033.13;5112866;28;19912;-37
2022/06/25 07:43:01;;;;;;;;;;;;;;;-146.27;100.00;64033.13;5112681;28;20094;-35
2022/06/25 07:45:27;;;;;;;;;;;;;;;-146.27;100.00;64033.13;5113070;28;19984;-37
2022/06/25 07:47:52;;;;;;;;;;;;;;;-146.27;100.00;64033.13;5112802;28;19950;-37
2022/06/25 07:53:01;;;;;;;;;;;;;;;-146.27;100.00;64033.13;5112404;28;19918;-38
2022/06/25 07:55:27;;;;;;;;;;;;;;;-146.27;100.00;64033.13;5112870;28;19981;-38
2022/06/25 07:57:52;;;;;;;;;;;;;;;-146.27;100.00;64033.13;5112931;28;19951;-39
2022/06/25 08:00:17;;;;;;;;;;;;;;;-146.27;100.00;64033.13;5112639;28;20400;-38
2022/06/25 08:02:43;;;;;;;;;;;;;;;-146.27;100.00;64033.13;5112676;28;19912;-37
2022/06/25 08:05:08;;;;;;;;;;;;;;;-146.27;100.00;64033.13;5112731;28;20504;-38
2022/06/25 08:07:33;;;;;;;;;;;;;;;-146.27;100.00;64033.13;5110087;28;19941;-38
2022/06/25 08:09:59;;;;;;;;;;;;;;;-146.27;100.00;64033.13;5092455;28;19916;-37
2022/06/25 08:12:24;;;;;;;;;;;;;;;-146.27;100.00;64033.13;5092611;28;19915;-38
2022/06/25 08:14:49;;;;;;;;;;;;;;;-146.27;100.00;64033.13;5092030;28;19919;-38
2022/06/25 08:17:15;;;;;;;;;;;;;;;-146.27;100.00;64033.13;5091973;28;19971;-38
2022/06/25 08:19:40;;;;;;;;;;;;;;;-146.27;100.00;64033.13;5094022;28;19912;-38
2022/06/25 08:22:05;;;;;;;;;;;;;;;-146.27;100.00;64033.13;5111198;28;19919;-37
2022/06/25 08:24:30;;;;;;;;;;;;;;;-146.27;100.00;64033.13;5111847;28;20002;-37
2022/06/25 08:26:56;;;;;;;;;;;;;;;-146.27;100.00;64033.13;5112002;28;19964;-37
2022/06/25 08:29:21;;;;;;;;;;;;;;;-146.27;100.00;64033.13;5112196;28;19915;-38
2022/06/25 08:31:46;;;;;;;;;;;;;;;-146.27;100.00;64033.13;5111933;28;19959;-38
2022/06/25 08:34:12;;;;;;;;;;;;;;;-146.27;100.00;64033.13;5111790;28;19961;-37
2022/06/25 08:36:37;;;;;;;;;;;;;;;-146.27;100.00;64033.13;5111226;28;19939;-37
2022/06/25 08:39:02;;;;;;;;;;;;;;;-146.27;100.00;64033.13;5112324;28;20355;-37
2022/06/25 08:41:28;;;;;;;;;;;;;;;-146.27;100.00;64033.13;5111940;28;19994;-37
2022/06/25 08:43:53;;;;;;;;;;;;;;;-146.27;100.00;64033.13;5112258;28;19912;-36
2022/06/25 08:46:19;;;;;;;;;;;;;;;-146.27;100.00;64033.13;5111562;28;20328;-37
2022/06/25 08:48:48;;;;;;;;;;;;;;;-146.27;100.00;64033.13;5111687;28;19923;-37
2022/06/25 08:51:15;;;;;;;;;;;;;;;-146.27;100.00;64033.13;5111376;28;20006;-37
2022/06/25 08:53:40;;;;;;;;;;;;;;;-146.27;100.00;64033.13;5111729;28;20417;-38
2022/06/25 08:56:06;;;;;;;;;;;;;;;-146.27;100.00;64033.13;5111443;28;19911;-37
2022/06/25 08:58:31;;;;;;;;;;;;;;;-146.27;100.00;64033.13;5111652;27;19912;-38
2022/06/25 09:00:57;;;;;;;;;;;;;;;-146.27;100.00;64033.13;5111021;28;19918;-36
2022/06/25 09:03:22;;;;;;;;;;;;;;;-146.27;100.00;64033.13;5111574;28;20288;-36
2022/06/25 09:05:47;;;;;;;;;;;;;;;-146.27;100.00;64033.13;5111485;28;20275;-38
2022/06/25 09:08:14;;;;;;;;;;;;;;;-146.27;100.00;64033.13;5102627;28;19911;-37
2022/06/25 09:10:41;;;;;;;;;;;;;;;-146.27;100.00;64033.13;5090728;28;20387;-37
2022/06/25 09:13:08;;;;;;;;;;;;;;;-146.27;100.00;64033.13;5090830;28;20003;-38
2022/06/25 09:15:40;;;;;;;;;;;;;;;-146.27;100.00;64033.13;5091215;28;19992;-38
2022/06/25 09:18:13;;;;;;;;;;;;;;;-146.27;100.00;64033.13;5089137;28;19912;-38
2022/06/25 09:20:57;;;;;;;;;;;;;;;-146.27;100.00;64033.13;5101274;28;19912;-37
2022/06/25 09:23:22;;;;;;;;;;;;;;;-146.27;100.00;64033.13;5111116;28;19919;-37
2022/06/25 09:25:59;;;;;;;;;;;;;;;-146.27;100.00;64033.13;5111087;28;19912;-38
2022/06/25 09:28:31;;;;;;;;;;;;;;;-146.27;100.00;64033.13;5110774;28;19964;-38
2022/06/25 09:30:57;;;;;;;;;;;;;;;-146.27;100.00;64033.13;5110892;28;20383;-37
2022/06/25 09:33:22;;;;;;;;;;;;;;;-146.27;100.00;64033.13;5111266;28;20003;-37
2022/06/25 09:35:50;;;;;;;;;;;;;;;-146.27;100.00;64033.13;5111006;28;19923;-37
2022/06/25 09:38:19;;;;;;;;;;;;;;;-146.27;100.00;64033.13;5111006;28;19951;-38
2022/06/25 09:40:48;;;;;;;;;;;;;;;-146.27;100.00;64033.13;5110799;28;19915;-38
2022/06/25 09:43:18;;;;;;;;;;;;;;;-146.27;100.00;64033.13;5110943;28;19946;-37
2022/06/25 09:45:44;;;;;;;;;;;;;;;-146.27;100.00;64033.13;5109688;28;20000;-38
2022/06/25 09:48:16;;;;;;;;;;;;;;;-146.27;100.00;64033.13;5112808;28;19912;-38
2022/06/25 09:50:41;;;;;;;;;;;;;;;-146.27;100.00;64033.13;5114934;27;19960;-38
2022/06/25 09:53:07;;;;;;;;;;;;;;;-146.27;100.00;64033.13;5115094;28;19951;-38
2022/06/25 09:55:33;;;;;;;;;;;;;;;-146.27;100.00;64033.13;5114748;28;20345;-37
2022/06/25 09:58:02;;;;;;;;;;;;;;;-146.27;100.00;64033.13;5114990;28;20339;-37
2022/06/25 10:00:28;;;;;;;;;;;;;;;-146.27;100.00;64033.13;5114756;28;19916;-37
2022/06/25 10:02:55;;;;;;;;;;;;;;;-146.27;100.00;64033.13;5114663;28;20002;-37
2022/06/25 10:05:34;;;;;;;;;;;;;;;-146.27;100.00;64033.13;5114965;28;19947;-37
2022/06/25 10:08:00;;;;;;;;;;;;;;;-146.27;100.00;64033.13;5108305;28;20375;-38
2022/06/25 10:10:26;;;;;;;;;;;;;;;-146.27;100.00;64033.13;5094254;28;20383;-38
2022/06/25 10:12:52;;;;;;;;;;;;;;;-146.27;100.00;64033.13;5094285;28;19912;-37
2022/06/25 10:15:18;;;;;;;;;;;;;;;-146.27;100.00;64033.13;5094186;28;19916;-37
2022/06/25 10:17:48;;;;;;;;;;;;;;;-146.27;100.00;64033.13;5094226;28;19912;-38
2022/06/25 10:20:14;;;;;;;;;;;;;;;-146.27;100.00;64033.13;5101217;28;19930;-38
2022/06/25 10:22:39;;;;;;;;;;;;;;;-146.27;100.00;64033.13;5114151;28;19938;-38
2022/06/25 10:25:08;;;;;;;;;;;;;;;-146.27;100.00;64033.13;5114077;28;19923;-38
2022/06/25 10:27:38;;;;;;;;;;;;;;;-146.27;100.00;64033.13;5114538;28;19951;-37
2022/06/25 10:30:03;;;;;;;;;;;;;;;-146.27;100.00;64033.13;5114377;28;19916;-37
2022/06/25 10:32:28;;;;;;;;;;;;;;;-146.27;100.00;64033.13;5114248;28;19967;-38
2022/06/25 10:34:54;;;;;;;;;;;;;;;-146.27;100.00;64033.13;5114332;28;19980;-37
2022/06/25 10:37:20;;;;;;;;;;;;;;;-146.27;100.00;64033.13;5114141;28;19962;-38
2022/06/25 10:39:49;;;;;;;;;;;;;;;-146.27;100.00;64033.13;5114594;28;19912;-37
2022/06/25 10:45:07;;;;;;;;;;;;;;;-146.27;100.00;64033.13;5114542;28;19968;-37
2022/06/25 10:47:38;;;;;;;;;;;;;;;-146.27;100.00;64033.13;5114286;28;20356;-38
2022/06/25 10:50:21;;;;;;;;;;;;;;;-146.27;100.00;64033.13;5114594;28;19920;-38
2022/06/25 10:53:02;;;;;;;;;;;;;;;-146.27;100.00;64033.13;5113898;28;19912;-38
2022/06/25 10:55:27;;;;;;;;;;;;;;;-146.27;100.00;64033.13;5113962;28;19915;-38
2022/06/25 10:58:09;;;;;;;;;;;;;;;-146.27;100.00;64033.13;5113763;28;19911;-37
2022/06/25 11:00:44;;;;;;;;;;;;;;;-146.27;100.00;64033.13;5113089;28;19918;-38
2022/06/25 11:03:10;;;;;;;;;;;;;;;-146.27;100.00;64033.13;5113723;28;19924;-38
2022/06/25 11:05:42;;;;;;;;;;;;;;;-146.27;100.00;64033.13;5107387;28;19923;-38
2022/06/25 11:08:07;;;;;;;;;;;;;;;-146.27;100.00;64033.13;5092950;28;20249;-37
2022/06/25 11:10:35;;;;;;;;;;;;;;;-146.27;100.00;64033.13;5092867;28;19920;-37
2022/06/25 11:13:01;;;;;;;;;;;;;;;-146.27;100.00;64033.13;5093125;28;20392;-37
2022/06/25 11:15:38;;;;;;;;;;;;;;;-146.27;100.00;64033.13;5093172;28;19956;-38
2022/06/25 11:18:13;;;;;;;;;;;;;;;-146.27;100.00;64033.13;5093420;28;20020;-37
2022/06/25 11:20:39;;;;;;;;;;;;;;;-146.27;100.00;64033.13;5103160;28;19912;-37
2022/06/25 11:23:04;;;;;;;;;;;;;;;-146.27;100.00;64033.13;5113195;28;20347;-36
2022/06/25 11:28:47;;;;;;;;;;;;;;;-146.27;100.00;64033.13;5113175;28;19946;-37
2022/06/25 11:31:13;;;;;;;;;;;;;;;-146.27;100.00;64033.13;5113021;28;19926;-37
2022/06/25 11:33:40;;;;;;;;;;;;;;;-146.27;100.00;64033.13;5113612;28;19916;-38
2022/06/25 11:36:13;;;;;;;;;;;;;;;-146.27;100.00;64033.13;5112505;28;20383;-38
2022/06/25 11:39:04;;;;;;;;;;;;;;;-146.27;100.00;64033.13;5112968;28;19911;-37
2022/06/25 11:41:30;;;;;;;;;;;;;;;-146.27;100.00;64033.13;5111386;28;19918;-37
2022/06/25 11:44:03;;;;;;;;;;;;;;;-146.27;100.00;64033.13;5112843;28;19915;-38
2022/06/25 11:46:28;;;;;;;;;;;;;;;-146.27;100.00;64033.13;5112666;28;19912;-37
2022/06/25 11:48:55;;;;;;;;;;;;;;;-146.27;100.00;64033.13;5112810;28;19957;-37
2022/06/25 11:51:24;;;;;;;;;;;;;;;-146.27;100.00;64033.13;5112920;28;19915;-37
2022/06/25 11:53:50;;;;;;;;;;;;;;;-146.27;100.00;64033.13;5112788;28;19912;-38
2022/06/25 11:56:15;;;;;;;;;;;;;;;-146.27;100.00;64033.13;5112632;28;20414;-38
2022/06/25 11:58:41;;;;;;;;;;;;;;;-146.27;100.00;64033.13;5112331;28;19912;-38
2022/06/25 12:01:06;;;;;;;;;;;;;;;-146.27;100.00;64033.13;5112646;28;19912;-37
2022/06/25 12:03:32;;;;;;;;;;;;;;;-146.27;100.00;64033.13;5112628;28;19912;-38
2022/06/25 12:05:58;;;;;;;;;;;;;;;-146.27;100.00;64033.13;5112423;28;19912;-37
2022/06/25 12:08:24;;;;;;;;;;;;;;;-146.27;100.00;64033.13;5112322;27;19959;-38
2022/06/25 12:10:51;;;;;;;;;;;;;;;-146.27;100.00;64033.13;5109467;28;20199;-38
2022/06/25 12:13:17;;;;;;;;;;;;;;;-146.27;100.00;64033.13;5074423;28;19935;-37
2022/06/25 12:15:42;;;;;;;;;;;;;;;-146.27;100.00;64033.13;5076446;28;20060;-37
2022/06/25 12:18:07;;;;;;;;;;;;;;;-146.27;100.00;64033.13;5078265;28;20340;-38
2022/06/25 12:20:33;;;;;;;;;;;;;;;-146.27;100.00;64033.13;5101394;28;19919;-37
2022/06/25 12:22:59;;;;;;;;;;;;;;;-146.27;100.00;64033.13;5112271;28;19912;-37
2022/06/25 12:25:29;;;;;;;;;;;;;;;-146.27;100.00;64033.13;5112429;28;19911;-36
2022/06/25 12:27:54;;;;;;;;;;;;;;;-146.27;100.00;64033.13;5102234;28;19920;-37
2022/06/25 12:30:24;;;;;;;;;;;;;;;-146.27;100.00;64033.13;5091231;28;20012;-38
2022/06/25 12:32:49;;;;;;;;;;;;;;;-146.27;100.00;64033.13;5091293;28;19920;-50